PWSweather.com
Personal Weather Stations
Station Observations
KMIEASTT1
Tawas Bay, East Tawas, MI 48730

Tawas BayEast Tawas, MI 48730

Lat: 44.28, Lon: -83.48

Elevation: 600

Station Type: Davis VantagePro

http://www.tawasbayweather.com

Latest ConditionsUpdated 5:45:09 PM EDT Tuesday, Sep 30, 2014
Currently Today's Max Today's Min Today's Average
Temperature 50.5°F10.3°C 52.8°F11.6°C 47.2°F8.4°C 49.6°F9.8°C
Dew Point 48.8°F9.3°C 51.7°F10.9°C 46.0°F7.8°C 48.2°F9.0°C
Winds 2.0 mph NW3.2 kmh NW 6.0 mph N9.7 kmh N - 1.6 mph 2.6 kmh
Wind Gusts 4.0 mph6.4 kmh 10.0 mph16.1 kmh - -
Humidity 94% 97% 92% 95%
Pressure 30.02 in1016.6 mb 30.02 in1016.6 mb 29.91 in1012.9 mb -
Hour Temp Dew Point Humidity Winds Wind Gusts Pressure Precip Precip Rate Daily Precip Total
05:45 PM 50.5°F10.3°C 48.8°F9.3°C 94% 2.0 mph NW3.2 kmh NW 4.0 mph6.4 kmh 30.02 in1016.6 mb 0.00 in0.0 mm 0.00 in/hr0.0 mm/hr 0.00 in0.0 mm
05:30 PM 50.5°F10.3°C 48.8°F9.3°C 94% 1.0 mph NNW1.6 kmh NNW 3.0 mph4.8 kmh 30.02 in1016.6 mb 0.00 in0.0 mm 0.00 in/hr0.0 mm/hr 0.00 in0.0 mm
05:15 PM 50.5°F10.3°C 48.8°F9.3°C 94% Calm Calm 5.0 mph8.0 kmh 30.01 in1016.3 mb 0.00 in0.0 mm 0.00 in/hr0.0 mm/hr 0.00 in0.0 mm
05:00 PM 50.7°F10.4°C 48.8°F9.3°C 93% 2.0 mph N3.2 kmh N 4.0 mph6.4 kmh 30.01 in1016.3 mb 0.00 in0.0 mm 0.00 in/hr0.0 mm/hr 0.00 in0.0 mm
04:45 PM 50.9°F10.5°C 49.0°F9.4°C 93% 2.0 mph N3.2 kmh N 5.0 mph8.0 kmh 30.01 in1016.3 mb 0.00 in0.0 mm 0.00 in/hr0.0 mm/hr 0.00 in0.0 mm
04:30 PM 51.1°F10.6°C 49.2°F9.6°C 93% Calm Calm 3.0 mph4.8 kmh 30.00 in1015.9 mb 0.00 in0.0 mm 0.00 in/hr0.0 mm/hr 0.00 in0.0 mm
04:15 PM 51.3°F10.7°C 49.4°F9.7°C 93% 1.0 mph N1.6 kmh N 4.0 mph6.4 kmh 30.00 in1015.9 mb 0.00 in0.0 mm 0.00 in/hr0.0 mm/hr 0.00 in0.0 mm
04:00 PM 51.3°F10.7°C 49.4°F9.7°C 93% Calm Calm 4.0 mph6.4 kmh 30.01 in1016.3 mb 0.00 in0.0 mm 0.00 in/hr0.0 mm/hr 0.00 in0.0 mm
03:45 PM 51.5°F10.8°C 49.8°F9.9°C 94% 2.0 mph NW3.2 kmh NW 4.0 mph6.4 kmh 30.01 in1016.3 mb 0.00 in0.0 mm 0.00 in/hr0.0 mm/hr 0.00 in0.0 mm
03:30 PM 51.3°F10.7°C 49.9°F9.9°C 95% 2.0 mph N3.2 kmh N 5.0 mph8.0 kmh 30.01 in1016.3 mb 0.00 in0.0 mm 0.00 in/hr0.0 mm/hr 0.00 in0.0 mm
03:15 PM 51.3°F10.7°C 49.9°F9.9°C 95% Calm Calm 4.0 mph6.4 kmh 30.01 in1016.3 mb 0.00 in0.0 mm 0.00 in/hr0.0 mm/hr 0.00 in0.0 mm
03:00 PM 51.0°F10.6°C 49.3°F9.6°C 94% 2.0 mph NNE3.2 kmh NNE 3.0 mph4.8 kmh 30.01 in1016.3 mb 0.00 in0.0 mm 0.00 in/hr0.0 mm/hr 0.00 in0.0 mm
02:45 PM 50.9°F10.5°C 49.0°F9.4°C 93% Calm Calm 4.0 mph6.4 kmh 30.01 in1016.3 mb 0.00 in0.0 mm 0.00 in/hr0.0 mm/hr 0.00 in0.0 mm
02:30 PM 51.0°F10.6°C 48.8°F9.3°C 92% Calm Calm 5.0 mph8.0 kmh 30.01 in1016.3 mb 0.00 in0.0 mm 0.00 in/hr0.0 mm/hr 0.00 in0.0 mm
02:15 PM 51.0°F10.6°C 48.8°F9.3°C 92% 1.0 mph NW1.6 kmh NW 4.0 mph6.4 kmh 30.01 in1016.3 mb 0.00 in0.0 mm 0.00 in/hr0.0 mm/hr 0.00 in0.0 mm
02:00 PM 50.7°F10.4°C 48.5°F9.2°C 92% Calm Calm 4.0 mph6.4 kmh 30.01 in1016.3 mb 0.00 in0.0 mm 0.00 in/hr0.0 mm/hr 0.00 in0.0 mm
01:45 PM 50.5°F10.3°C 48.3°F9.1°C 92% 3.0 mph NW4.8 kmh NW 4.0 mph6.4 kmh 30.01 in1016.3 mb 0.00 in0.0 mm 0.00 in/hr0.0 mm/hr 0.00 in0.0 mm
01:30 PM 50.7°F10.4°C 48.5°F9.2°C 92% 2.0 mph NW3.2 kmh NW 3.0 mph4.8 kmh 30.01 in1016.3 mb 0.00 in0.0 mm 0.00 in/hr0.0 mm/hr 0.00 in0.0 mm
01:15 PM 50.7°F10.4°C 48.5°F9.2°C 92% 1.0 mph NNE1.6 kmh NNE 7.0 mph11.3 kmh 30.01 in1016.3 mb 0.00 in0.0 mm 0.00 in/hr0.0 mm/hr 0.00 in0.0 mm
01:00 PM 50.8°F10.4°C 48.6°F9.2°C 92% 1.0 mph N1.6 kmh N 3.0 mph4.8 kmh 30.00 in1015.9 mb 0.00 in0.0 mm 0.00 in/hr0.0 mm/hr 0.00 in0.0 mm
12:45 PM 50.7°F10.4°C 48.8°F9.3°C 93% 2.0 mph NW3.2 kmh NW 5.0 mph8.0 kmh 30.00 in1015.9 mb 0.00 in0.0 mm 0.00 in/hr0.0 mm/hr 0.00 in0.0 mm
12:30 PM 50.3°F10.2°C 48.4°F9.1°C 93% 2.0 mph NNW3.2 kmh NNW 5.0 mph8.0 kmh 30.00 in1015.9 mb 0.00 in0.0 mm 0.00 in/hr0.0 mm/hr 0.00 in0.0 mm
12:15 PM 49.8°F9.9°C 47.9°F8.8°C 93% 1.0 mph N1.6 kmh N 6.0 mph9.7 kmh 30.00 in1015.9 mb 0.00 in0.0 mm 0.00 in/hr0.0 mm/hr 0.00 in0.0 mm
12:00 PM 49.5°F9.7°C 47.9°F8.8°C 94% Calm Calm 5.0 mph8.0 kmh 30.00 in1015.9 mb 0.00 in0.0 mm 0.00 in/hr0.0 mm/hr 0.00 in0.0 mm
11:45 AM 49.4°F9.7°C 47.8°F8.8°C 94% 3.0 mph NNE4.8 kmh NNE 5.0 mph8.0 kmh 30.00 in1015.9 mb 0.00 in0.0 mm 0.00 in/hr0.0 mm/hr 0.00 in0.0 mm
11:30 AM 49.1°F9.5°C 47.5°F8.6°C 94% 3.0 mph NW4.8 kmh NW 5.0 mph8.0 kmh 30.00 in1015.9 mb 0.00 in0.0 mm 0.00 in/hr0.0 mm/hr 0.00 in0.0 mm
11:15 AM 49.1°F9.5°C 47.5°F8.6°C 94% 2.0 mph NNW3.2 kmh NNW 6.0 mph9.7 kmh 29.99 in1015.6 mb 0.00 in0.0 mm 0.00 in/hr0.0 mm/hr 0.00 in0.0 mm
11:00 AM 48.9°F9.4°C 47.3°F8.5°C 94% 4.0 mph N6.4 kmh N 4.0 mph6.4 kmh 29.99 in1015.6 mb 0.00 in0.0 mm 0.00 in/hr0.0 mm/hr 0.00 in0.0 mm
10:45 AM 49.0°F9.4°C 47.4°F8.6°C 94% 2.0 mph N3.2 kmh N 5.0 mph8.0 kmh 29.99 in1015.6 mb 0.00 in0.0 mm 0.00 in/hr0.0 mm/hr 0.00 in0.0 mm
10:30 AM 48.7°F9.3°C 47.1°F8.4°C 94% 3.0 mph NNE4.8 kmh NNE 6.0 mph9.7 kmh 29.99 in1015.6 mb 0.00 in0.0 mm 0.00 in/hr0.0 mm/hr 0.00 in0.0 mm
10:15 AM 48.5°F9.2°C 46.9°F8.3°C 94% Calm Calm 2.0 mph3.2 kmh 30.00 in1015.9 mb 0.00 in0.0 mm 0.00 in/hr0.0 mm/hr 0.00 in0.0 mm
10:00 AM 48.2°F9.0°C 46.6°F8.1°C 94% Calm Calm 7.0 mph11.3 kmh 29.99 in1015.6 mb 0.00 in0.0 mm 0.00 in/hr0.0 mm/hr 0.00 in0.0 mm
09:45 AM 48.2°F9.0°C 46.8°F8.2°C 95% Calm Calm 3.0 mph4.8 kmh 29.99 in1015.6 mb 0.00 in0.0 mm 0.00 in/hr0.0 mm/hr 0.00 in0.0 mm
09:30 AM 48.1°F8.9°C 46.7°F8.2°C 95% Calm Calm 7.0 mph11.3 kmh 29.98 in1015.2 mb 0.00 in0.0 mm 0.00 in/hr0.0 mm/hr 0.00 in0.0 mm
09:15 AM 47.9°F8.8°C 46.5°F8.1°C 95% Calm Calm 3.0 mph4.8 kmh 29.98 in1015.2 mb 0.00 in0.0 mm 0.00 in/hr0.0 mm/hr 0.00 in0.0 mm
09:00 AM 47.8°F8.8°C 46.7°F8.2°C 96% 1.0 mph N1.6 kmh N 5.0 mph8.0 kmh 29.98 in1015.2 mb 0.00 in0.0 mm 0.00 in/hr0.0 mm/hr 0.00 in0.0 mm
08:45 AM 47.4°F8.6°C 46.3°F7.9°C 96% Calm Calm 3.0 mph4.8 kmh 29.98 in1015.2 mb 0.00 in0.0 mm 0.00 in/hr0.0 mm/hr 0.00 in0.0 mm
08:30 AM 47.2°F8.4°C 46.1°F7.8°C 96% 2.0 mph NW3.2 kmh NW 5.0 mph8.0 kmh 29.98 in1015.2 mb 0.00 in0.0 mm 0.00 in/hr0.0 mm/hr 0.00 in0.0 mm
08:15 AM 47.3°F8.5°C 46.2°F7.9°C 96% 4.0 mph N6.4 kmh N 4.0 mph6.4 kmh 29.99 in1015.6 mb 0.00 in0.0 mm 0.00 in/hr0.0 mm/hr 0.00 in0.0 mm
08:00 AM 47.3°F8.5°C 46.2°F7.9°C 96% Calm Calm 4.0 mph6.4 kmh 29.98 in1015.2 mb 0.00 in0.0 mm 0.00 in/hr0.0 mm/hr 0.00 in0.0 mm
07:45 AM 47.4°F8.6°C 46.3°F7.9°C 96% 2.0 mph NNW3.2 kmh NNW 4.0 mph6.4 kmh 29.98 in1015.2 mb 0.00 in0.0 mm 0.00 in/hr0.0 mm/hr 0.00 in0.0 mm
07:30 AM 47.4°F8.6°C 46.0°F7.8°C 95% 1.0 mph NNE1.6 kmh NNE 5.0 mph8.0 kmh 29.98 in1015.2 mb 0.00 in0.0 mm 0.00 in/hr0.0 mm/hr 0.00 in0.0 mm
07:15 AM 47.4°F8.6°C 46.3°F7.9°C 96% 4.0 mph NW6.4 kmh NW 10.0 mph16.1 kmh 29.97 in1014.9 mb 0.00 in0.0 mm 0.00 in/hr0.0 mm/hr 0.00 in0.0 mm
07:00 AM 47.4°F8.6°C 46.3°F7.9°C 96% 3.0 mph NE4.8 kmh NE 8.0 mph12.9 kmh 29.97 in1014.9 mb 0.00 in0.0 mm 0.00 in/hr0.0 mm/hr 0.00 in0.0 mm
06:45 AM 47.5°F8.6°C 46.4°F8.0°C 96% 6.0 mph N9.7 kmh N 7.0 mph11.3 kmh 29.97 in1014.9 mb 0.00 in0.0 mm 0.00 in/hr0.0 mm/hr 0.00 in0.0 mm
06:30 AM 47.5°F8.6°C 46.4°F8.0°C 96% 1.0 mph NW1.6 kmh NW 7.0 mph11.3 kmh 29.96 in1014.6 mb 0.00 in0.0 mm 0.00 in/hr0.0 mm/hr 0.00 in0.0 mm
06:15 AM 47.7°F8.7°C 46.9°F8.3°C 97% 1.0 mph NNE1.6 kmh NNE 4.0 mph6.4 kmh 29.96 in1014.6 mb 0.00 in0.0 mm 0.00 in/hr0.0 mm/hr 0.00 in0.0 mm
06:00 AM 47.7°F8.7°C 46.6°F8.1°C 96% 3.0 mph N4.8 kmh N 4.0 mph6.4 kmh 29.96 in1014.6 mb 0.00 in0.0 mm 0.00 in/hr0.0 mm/hr 0.00 in0.0 mm
05:45 AM 47.8°F8.8°C 47.0°F8.3°C 97% 3.0 mph NW4.8 kmh NW 4.0 mph6.4 kmh 29.95 in1014.2 mb 0.00 in0.0 mm 0.00 in/hr0.0 mm/hr 0.00 in0.0 mm
05:30 AM 47.9°F8.8°C 46.8°F8.2°C 96% Calm Calm 5.0 mph8.0 kmh 29.95 in1014.2 mb 0.00 in0.0 mm 0.00 in/hr0.0 mm/hr 0.00 in0.0 mm
05:15 AM 48.0°F8.9°C 46.9°F8.3°C 96% 3.0 mph NW4.8 kmh NW 5.0 mph8.0 kmh 29.95 in1014.2 mb 0.00 in0.0 mm 0.00 in/hr0.0 mm/hr 0.00 in0.0 mm
05:00 AM 48.4°F9.1°C 47.3°F8.5°C 96% 5.0 mph WNW8.0 kmh WNW 6.0 mph9.7 kmh 29.95 in1014.2 mb 0.00 in0.0 mm 0.00 in/hr0.0 mm/hr 0.00 in0.0 mm
04:45 AM 48.7°F9.3°C 47.6°F8.7°C 96% 2.0 mph NNW3.2 kmh NNW 6.0 mph9.7 kmh 29.94 in1013.9 mb 0.00 in0.0 mm 0.00 in/hr0.0 mm/hr 0.00 in0.0 mm
04:30 AM 48.8°F9.3°C 47.7°F8.7°C 96% 2.0 mph N3.2 kmh N 3.0 mph4.8 kmh 29.94 in1013.9 mb 0.00 in0.0 mm 0.00 in/hr0.0 mm/hr 0.00 in0.0 mm
04:15 AM 49.0°F9.4°C 48.2°F9.0°C 97% Calm Calm 3.0 mph4.8 kmh 29.94 in1013.9 mb 0.00 in0.0 mm 0.00 in/hr0.0 mm/hr 0.00 in0.0 mm
04:00 AM 48.9°F9.4°C 48.1°F8.9°C 97% 2.0 mph N3.2 kmh N 5.0 mph8.0 kmh 29.93 in1013.5 mb 0.00 in0.0 mm 0.00 in/hr0.0 mm/hr 0.00 in0.0 mm
03:45 AM 49.2°F9.6°C 48.4°F9.1°C 97% 1.0 mph NNE1.6 kmh NNE 6.0 mph9.7 kmh 29.93 in1013.5 mb 0.00 in0.0 mm 0.00 in/hr0.0 mm/hr 0.00 in0.0 mm
03:30 AM 49.5°F9.7°C 48.7°F9.3°C 97% 2.0 mph NNW3.2 kmh NNW 5.0 mph8.0 kmh 29.93 in1013.5 mb 0.00 in0.0 mm 0.00 in/hr0.0 mm/hr 0.00 in0.0 mm
03:15 AM 49.8°F9.9°C 49.0°F9.4°C 97% Calm Calm 4.0 mph6.4 kmh 29.93 in1013.5 mb 0.00 in0.0 mm 0.00 in/hr0.0 mm/hr 0.00 in0.0 mm
03:00 AM 49.9°F9.9°C 49.1°F9.5°C 97% 1.0 mph NW1.6 kmh NW 5.0 mph8.0 kmh 29.93 in1013.5 mb 0.00 in0.0 mm 0.00 in/hr0.0 mm/hr 0.00 in0.0 mm
02:45 AM 50.0°F10.0°C 49.2°F9.6°C 97% 2.0 mph NW3.2 kmh NW 6.0 mph9.7 kmh 29.93 in1013.5 mb 0.00 in0.0 mm 0.00 in/hr0.0 mm/hr 0.00 in0.0 mm
02:30 AM 50.0°F10.0°C 49.2°F9.6°C 97% 2.0 mph NW3.2 kmh NW 4.0 mph6.4 kmh 29.92 in1013.2 mb 0.00 in0.0 mm 0.00 in/hr0.0 mm/hr 0.00 in0.0 mm
02:15 AM 50.1°F10.1°C 49.3°F9.6°C 97% 1.0 mph N1.6 kmh N 4.0 mph6.4 kmh 29.92 in1013.2 mb 0.00 in0.0 mm 0.00 in/hr0.0 mm/hr 0.00 in0.0 mm
02:00 AM 50.2°F10.1°C 49.4°F9.7°C 97% 3.0 mph N4.8 kmh N 6.0 mph9.7 kmh 29.92 in1013.2 mb 0.00 in0.0 mm 0.00 in/hr0.0 mm/hr 0.00 in0.0 mm
01:45 AM 50.4°F10.2°C 49.6°F9.8°C 97% 2.0 mph N3.2 kmh N 6.0 mph9.7 kmh 29.92 in1013.2 mb 0.00 in0.0 mm 0.00 in/hr0.0 mm/hr 0.00 in0.0 mm
01:30 AM 50.7°F10.4°C 49.9°F9.9°C 97% 1.0 mph NW1.6 kmh NW 5.0 mph8.0 kmh 29.91 in1012.9 mb 0.00 in0.0 mm 0.00 in/hr0.0 mm/hr 0.00 in0.0 mm
01:15 AM 50.9°F10.5°C 50.1°F10.1°C 97% 1.0 mph NW1.6 kmh NW 4.0 mph6.4 kmh 29.91 in1012.9 mb 0.00 in0.0 mm 0.00 in/hr0.0 mm/hr 0.00 in0.0 mm
01:00 AM 51.2°F10.7°C 50.4°F10.2°C 97% 4.0 mph NNW6.4 kmh NNW 6.0 mph9.7 kmh 29.91 in1012.9 mb 0.00 in0.0 mm 0.00 in/hr0.0 mm/hr 0.00 in0.0 mm
12:45 AM 51.5°F10.8°C 50.7°F10.4°C 97% 1.0 mph N1.6 kmh N 4.0 mph6.4 kmh 29.91 in1012.9 mb 0.00 in0.0 mm 0.00 in/hr0.0 mm/hr 0.00 in0.0 mm
12:30 AM 51.9°F11.1°C 51.1°F10.6°C 97% Calm Calm 7.0 mph11.3 kmh 29.91 in1012.9 mb 0.00 in0.0 mm 0.00 in/hr0.0 mm/hr 0.00 in0.0 mm
12:15 AM 52.4°F11.3°C 51.6°F10.9°C 97% 2.0 mph NW3.2 kmh NW 8.0 mph12.9 kmh 29.92 in1013.2 mb 0.00 in0.0 mm 0.00 in/hr0.0 mm/hr 0.00 in0.0 mm
12:00 AM 52.8°F11.6°C 51.7°F10.9°C 96% 4.0 mph NW6.4 kmh NW 4.0 mph6.4 kmh 29.91 in1012.9 mb 0.00 in0.0 mm 0.00 in/hr0.0 mm/hr 0.00 in0.0 mm